ESNL

Lycksele Airport

Sweden
METAR ESNL 211320Z AUTO VRB03KT 9999 FEW038/// 28/10 Q1005
Observed Flight Rules
Jul-21 @ 13:20 UTC (15 minutes ago) Visual Flight Rules
Wind Visibility Clouds
Variable at 3 knots 10,000+ meters
  • Few at 3,800' AGL
Temperatures Readings
Current 28°C / 82°F
Dewpoint 10°C / 50°F
Humidity 32%
Altimeter 29.68" Hg
Pressure 1005 hPa
Elevation 214
METAR ESNL 211320Z AUTO VRB03KT 9999 FEW038/// 28/10 Q1005
Observed Flight Rules
Jul-21 @ 13:20 UTC
(15 minutes ago)
VFR
Wind Visibility
Variable at 3 knots 10,000+ meters
Clouds
  • Few at 3,800' AGL
Temperature Dewpoint
28°C / 82°F 10°C / 50°F
Humidity Altimeter Pressure
32% 29.68" Hg 1005 hPa